| time (UTC) | temp C | wind direction | speed KPH | gust KPH | rain 1hr cm | rain 24hr cm | rain mn cm | humidity % | barometer mb |
| 20260505011015 | 21 | 243 | 1.6 | 4.8 | 0.00 | 0.00 | 0.00 | 59 | 1011.8 |
| 20260505010017 | 21 | 273 | 1.6 | 4.8 | 0.00 | 0.00 | 0.00 | 57 | 1011.7 |
| 20260505005015 | 22 | 309 | 3.2 | 8.0 | 0.00 | 0.00 | 0.00 | 55 | 1011.6 |
| 20260505004015 | 22 | 31 | 1.6 | 8.0 | 0.00 | 0.00 | 0.00 | 54 | 1011.7 |
| 20260505003016 | 22 | 22 | 3.2 | 12.9 | 0.00 | 0.00 | 0.00 | 54 | 1011.7 |
| 20260505002015 | 22 | 284 | 4.8 | 11.3 | 0.00 | 0.00 | 0.00 | 53 | 1011.5 |
| 20260505001015 | 22 | 281 | 4.8 | 11.3 | 0.00 | 0.00 | 0.00 | 52 | 1011.5 |
| 20260505000015 | 23 | 321 | 3.2 | 16.1 | 0.00 | 0.00 | 0.00 | 51 | 1011.5 |
| 20260504235015 | 23 | 21 | 4.8 | 16.1 | 0.00 | 0.00 | 0.00 | 50 | 1011.5 |
| 20260504234015 | 23 | 6 | 8.0 | 19.3 | 0.00 | 0.00 | 0.00 | 49 | 1011.7 |
| 20260504233015 | 23 | 357 | 8.0 | 20.9 | 0.00 | 0.00 | 0.00 | 48 | 1011.6 |
| 20260504232015 | 24 | 29 | 6.4 | 20.9 | 0.00 | 0.00 | 0.00 | 48 | 1011.6 |
| 20260504231016 | 24 | 348 | 8.0 | 20.9 | 0.00 | 0.00 | 0.00 | 47 | 1011.7 |
| 20260504230005 | 25 | 331 | 8.0 | 20.9 | 0.00 | 0.00 | 0.00 | 46 | 1011.6 |
| 20260504225015 | 25 | 12 | 9.7 | 19.3 | 0.00 | 0.00 | 0.00 | 46 | 1011.7 |
| 20260504224015 | 25 | 353 | 11.3 | 22.5 | 0.00 | 0.00 | 0.00 | 45 | 1011.7 |
| 20260504223015 | 25 | 6 | 8.0 | 22.5 | 0.00 | 0.00 | 0.00 | 45 | 1011.6 |
| 20260504222015 | 25 | 341 | 4.8 | 24.1 | 0.00 | 0.00 | 0.00 | 45 | 1011.8 |
| 20260504221016 | 25 | 11 | 12.9 | 20.9 | 0.00 | 0.00 | 0.00 | 45 | 1012.0 |
| 20260504220015 | 26 | 9 | 14.5 | 27.4 | 0.00 | 0.00 | 0.00 | 44 | 1012.0 |
| 20260504215015 | 26 | 38 | 9.7 | 20.9 | 0.00 | 0.00 | 0.00 | 44 | 1012.0 |
| 20260504214015 | 26 | 6 | 12.9 | 24.1 | 0.00 | 0.00 | 0.00 | 44 | 1012.2 |
| 20260504213015 | 26 | 6 | 14.5 | 25.7 | 0.00 | 0.00 | 0.00 | 44 | 1012.2 |
| 20260504212015 | 26 | 358 | 14.5 | 25.7 | 0.00 | 0.00 | 0.00 | 44 | 1012.3 |
| 20260504211016 | 26 | 39 | 6.4 | 20.9 | 0.00 | 0.00 | 0.00 | 44 | 1012.4 |
| 20260504210015 | 26 | 22 | 9.7 | 20.9 | 0.00 | 0.00 | 0.00 | 43 | 1012.6 |
| 20260504205015 | 26 | 38 | 8.0 | 24.1 | 0.00 | 0.00 | 0.00 | 43 | 1012.7 |
| 20260504204015 | 26 | 3 | 9.7 | 24.1 | 0.00 | 0.00 | 0.00 | 43 | 1012.9 |
| 20260504203015 | 27 | 1 | 11.3 | 29.0 | 0.00 | 0.00 | 0.00 | 42 | 1013.0 |
| 20260504202015 | 27 | 28 | 8.0 | 16.1 | 0.00 | 0.00 | 0.00 | 42 | 1013.1 |
| 20260504201015 | 27 | 67 | 8.0 | 25.7 | 0.00 | 0.00 | 0.00 | 42 | 1013.3 |
| 20260504200015 | 26 | 339 | 8.0 | 27.4 | 0.00 | 0.00 | 0.00 | 42 | 1013.5 |
| 20260504195015 | 27 | 351 | 11.3 | 25.7 | 0.00 | 0.00 | 0.00 | 41 | 1013.5 |
| 20260504193015 | 27 | 355 | 9.7 | 19.3 | 0.00 | 0.00 | 0.00 | 42 | 1013.8 |
| 20260504191015 | 27 | 5 | 14.5 | 22.5 | 0.00 | 0.00 | 0.00 | 42 | 1014.0 |
| 20260504185015 | 27 | 23 | 4.8 | 22.5 | 0.00 | 0.00 | 0.00 | 43 | 1014.2 |
| 20260504184015 | 28 | 94 | 9.7 | 25.7 | 0.00 | 0.00 | 0.00 | 41 | 1014.3 |
| 20260504182015 | 27 | 15 | 9.7 | 24.1 | 0.00 | 0.00 | 0.00 | 44 | 1014.4 |
| 20260504181015 | 27 | 14 | 11.3 | 20.9 | 0.00 | 0.00 | 0.00 | 45 | 1014.5 |
| 20260504180015 | 27 | 350 | 6.4 | 20.9 | 0.00 | 0.00 | 0.00 | 45 | 1014.5 |
| 20260504175015 | 28 | 3 | 8.0 | 19.3 | 0.00 | 0.00 | 0.00 | 45 | 1014.5 |
| 20260504174015 | 27 | 40 | 8.0 | 16.1 | 0.00 | 0.00 | 0.00 | 46 | 1014.8 |
| 20260504173015 | 27 | 13 | 12.9 | 27.4 | 0.00 | 0.00 | 0.00 | 46 | 1015.0 |
| 20260504172015 | 27 | 28 | 11.3 | 19.3 | 0.00 | 0.00 | 0.00 | 46 | 1015.1 |
| 20260504171017 | 26 | 30 | 8.0 | 24.1 | 0.00 | 0.00 | 0.00 | 48 | 1015.3 |
| 20260504151017 | 24 | 45 | 8.0 | 14.5 | 0.00 | 0.00 | 0.00 | 55 | 1016.5 |
| 20260504141017 | 21 | 13 | 9.7 | 19.3 | 0.00 | 0.00 | 0.00 | 62 | 1017.0 |
| 20260504081017 | 11 | 331 | 1.6 | 8.0 | 0.00 | 0.00 | 0.00 | 92 | 1016.4 |
| 20260504044017 | 12 | 282 | 0.0 | 0.0 | 0.00 | 0.00 | 0.00 | 88 | 1018.0 |
| 20260504043017 | 12 | 282 | 0.0 | 0.0 | 0.00 | 0.00 | 0.00 | 87 | 1017.9 |
| 20260504042016 | 12 | 282 | 0.0 | 4.8 | 0.00 | 0.00 | 0.00 | 86 | 1017.9 |
| 20260504041016 | 12 | 237 | 0.0 | 4.8 | 0.00 | 0.00 | 0.00 | 86 | 1018.0 |
| 20260504040016 | 12 | 267 | 1.6 | 4.8 | 0.00 | 0.00 | 0.00 | 85 | 1018.1 |
| 20260504035016 | 12 | 240 | 0.0 | 8.0 | 0.00 | 0.00 | 0.00 | 85 | 1018.1 |
| 20260504034016 | 12 | 208 | 1.6 | 4.8 | 0.00 | 0.00 | 0.00 | 84 | 1018.2 |
| 20260504033016 | 12 | 322 | 0.0 | 0.0 | 0.00 | 0.00 | 0.00 | 83 | 1018.2 |
| 20260504032017 | 12 | 322 | 0.0 | 0.0 | 0.00 | 0.00 | 0.00 | 83 | 1018.1 |
| 20260504031016 | 13 | 322 | 0.0 | 3.2 | 0.00 | 0.00 | 0.00 | 83 | 1018.1 |
| 20260504030016 | 13 | 320 | 0.0 | 3.2 | 0.00 | 0.00 | 0.00 | 82 | 1018.2 |
| 20260504025017 | 13 | 318 | 0.0 | 0.0 | 0.00 | 0.00 | 0.00 | 81 | 1018.0 |
| 20260504023017 | 14 | 318 | 0.0 | 0.0 | 0.00 | 0.00 | 0.00 | 79 | 1017.9 |
| 20260504022017 | 14 | 318 | 0.0 | 3.2 | 0.00 | 0.00 | 0.00 | 78 | 1017.9 |
| 20260504021016 | 15 | 313 | 0.0 | 0.0 | 0.00 | 0.00 | 0.00 | 76 | 1017.8 |
| 20260504015016 | 15 | 313 | 0.0 | 0.0 | 0.00 | 0.00 | 0.00 | 73 | 1017.7 |
| 20260504014016 | 15 | 313 | 0.0 | 0.0 | 0.00 | 0.00 | 0.00 | 72 | 1017.6 |
| 20260504012016 | 16 | 313 | 0.0 | 0.0 | 0.00 | 0.00 | 0.00 | 70 | 1017.3 |